createdAt,value
2018-09-18T00:01:26.706Z,11.01
2018-09-18T00:04:31.347Z,10.97
2018-09-18T00:07:35.931Z,11.08
2018-09-18T00:10:40.378Z,10.95
2018-09-18T00:13:45.024Z,10.92
2018-09-18T00:16:49.620Z,10.85
2018-09-18T00:19:54.160Z,10.78
2018-09-18T00:22:58.761Z,10.74
2018-09-18T00:26:03.342Z,10.63
2018-09-18T00:29:07.991Z,10.57
2018-09-18T00:32:12.555Z,10.54
2018-09-18T00:35:17.172Z,10.61
2018-09-18T00:38:21.648Z,10.53
2018-09-18T00:41:26.907Z,10.47
2018-09-18T00:44:31.429Z,10.45
2018-09-18T00:47:35.949Z,10.37
2018-09-18T00:50:40.412Z,10.30
2018-09-18T00:53:44.852Z,10.32
2018-09-18T00:56:49.353Z,10.28
2018-09-18T00:59:53.897Z,10.26
2018-09-18T01:02:58.371Z,10.29
2018-09-18T01:06:03.240Z,10.25
2018-09-18T01:09:09.887Z,10.26
2018-09-18T01:12:14.408Z,10.23
2018-09-18T01:15:18.978Z,10.37
2018-09-18T01:18:23.588Z,10.37
2018-09-18T01:21:28.195Z,10.25
2018-09-18T01:24:32.662Z,10.26
2018-09-18T01:27:37.080Z,10.08
2018-09-18T01:30:42.193Z,10.09
2018-09-18T01:33:46.699Z,9.99
2018-09-18T01:36:51.179Z,9.98
2018-09-18T01:39:55.748Z,9.92
2018-09-18T01:43:00.283Z,9.89
2018-09-18T01:46:04.974Z,9.99
2018-09-18T01:49:09.493Z,9.89
2018-09-18T01:52:14.079Z,9.82
2018-09-18T01:55:18.603Z,9.75
2018-09-18T01:58:23.072Z,9.71
2018-09-18T02:01:27.564Z,9.66
2018-09-18T02:04:32.894Z,9.77
2018-09-18T02:07:37.434Z,9.70
2018-09-18T02:10:42.035Z,9.73
2018-09-18T02:13:46.474Z,9.86
2018-09-18T02:16:51.077Z,9.83
2018-09-18T02:19:55.505Z,9.84
2018-09-18T02:23:00.584Z,9.73
2018-09-18T02:26:05.424Z,9.73
2018-09-18T02:29:09.962Z,9.76
2018-09-18T02:32:14.603Z,9.86
2018-09-18T02:35:19.271Z,9.84
2018-09-18T02:38:23.760Z,9.66
2018-09-18T02:41:28.398Z,9.54
2018-09-18T02:44:33.017Z,9.45
2018-09-18T02:47:37.541Z,9.36
2018-09-18T02:50:42.177Z,9.31
2018-09-18T02:53:46.695Z,9.28
2018-09-18T02:56:51.329Z,9.27
2018-09-18T02:59:55.909Z,9.23
2018-09-18T03:03:00.469Z,9.18
2018-09-18T03:06:04.984Z,9.23
2018-09-18T03:09:10.807Z,9.20
2018-09-18T03:12:15.207Z,9.14
2018-09-18T03:15:19.890Z,9.19
2018-09-18T03:18:24.448Z,9.18
2018-09-18T03:21:29.055Z,9.09
2018-09-18T03:24:33.673Z,9.05
2018-09-18T03:27:38.345Z,9.04
2018-09-18T03:30:42.941Z,9.20
2018-09-18T03:33:47.720Z,9.05
2018-09-18T03:36:52.554Z,9.07
2018-09-18T03:39:57.321Z,9.06
2018-09-18T03:43:02.040Z,8.95
2018-09-18T03:46:06.764Z,8.91
2018-09-18T03:49:11.570Z,8.86
2018-09-18T03:52:16.409Z,8.86
2018-09-18T03:55:21.050Z,8.88
2018-09-18T03:58:25.713Z,8.93
2018-09-18T04:01:30.157Z,8.81
2018-09-18T04:04:34.838Z,8.82
2018-09-18T04:07:39.274Z,8.75
2018-09-18T04:10:43.735Z,8.70
2018-09-18T04:13:48.271Z,8.68
2018-09-18T04:16:52.755Z,8.80
2018-09-18T04:19:57.358Z,8.78
2018-09-18T04:23:02.032Z,8.77
2018-09-18T04:26:06.896Z,8.72
2018-09-18T04:29:11.607Z,8.68
2018-09-18T04:32:16.246Z,8.70
2018-09-18T04:35:20.814Z,8.60
2018-09-18T04:38:25.248Z,8.58
2018-09-18T04:41:29.702Z,8.58
2018-09-18T04:44:34.183Z,8.53
2018-09-18T04:47:38.631Z,8.56
2018-09-18T04:50:43.111Z,8.51
2018-09-18T04:53:47.825Z,8.58
2018-09-18T04:56:52.313Z,8.58
2018-09-18T04:59:56.854Z,8.50
2018-09-18T05:03:01.314Z,8.57
2018-09-18T05:06:05.868Z,8.57
2018-09-18T05:09:11.170Z,8.64
2018-09-18T05:12:15.765Z,8.61
2018-09-18T05:15:20.628Z,8.76
2018-09-18T05:18:25.166Z,8.81
2018-09-18T05:21:29.821Z,8.99
2018-09-18T05:24:34.369Z,9.27
2018-09-18T05:27:39.745Z,9.65
2018-09-18T05:30:44.572Z,10.07
2018-09-18T05:33:49.171Z,10.38
2018-09-18T05:36:53.830Z,10.50
2018-09-18T05:39:58.325Z,10.86
2018-09-18T05:43:02.826Z,10.96
2018-09-18T05:46:07.471Z,10.83
2018-09-18T05:49:11.918Z,10.64
2018-09-18T05:52:16.500Z,10.80
2018-09-18T05:55:21.020Z,11.03
2018-09-18T05:58:25.483Z,11.08
2018-09-18T06:01:29.944Z,11.23
2018-09-18T06:04:34.465Z,11.28
2018-09-18T06:07:39.379Z,11.42
2018-09-18T06:10:43.966Z,11.70
2018-09-18T06:13:48.479Z,11.90
2018-09-18T06:16:53.164Z,11.89
2018-09-18T06:19:57.750Z,12.09
2018-09-18T06:23:03.311Z,12.17
2018-09-18T06:26:07.923Z,12.40
2018-09-18T06:29:12.348Z,12.64
2018-09-18T06:32:16.836Z,12.85
2018-09-18T06:35:21.364Z,12.57
2018-09-18T06:38:25.829Z,12.67
2018-09-18T06:41:30.338Z,12.89
2018-09-18T06:44:34.771Z,13.18
2018-09-18T06:47:39.266Z,13.50
2018-09-18T06:50:43.778Z,13.45
2018-09-18T06:53:48.502Z,13.25
2018-09-18T06:56:53.001Z,13.73
2018-09-18T06:59:57.508Z,13.64
2018-09-18T07:03:01.964Z,14.18
2018-09-18T07:06:06.646Z,14.49
2018-09-18T07:09:11.100Z,14.68
2018-09-18T07:12:15.592Z,14.58
2018-09-18T07:15:20.140Z,14.24
2018-09-18T07:18:24.575Z,14.93
2018-09-18T07:21:30.064Z,14.91
2018-09-18T07:24:34.539Z,15.13
2018-09-18T07:27:38.987Z,15.83
2018-09-18T07:30:43.525Z,15.51
2018-09-18T07:33:48.038Z,15.21
2018-09-18T07:36:52.523Z,15.63
2018-09-18T07:39:57.205Z,16.24
2018-09-18T07:43:01.671Z,16.14
2018-09-18T07:46:06.464Z,16.27
2018-09-18T07:49:10.907Z,16.47
2018-09-18T07:52:15.704Z,16.85
2018-09-18T07:55:20.149Z,17.54
2018-09-18T07:58:24.675Z,17.37
2018-09-18T08:01:29.720Z,17.61
2018-09-18T08:04:34.171Z,17.78
2018-09-18T08:07:38.631Z,18.28
2018-09-18T08:10:43.220Z,18.37
2018-09-18T08:13:47.664Z,18.13
2018-09-18T08:16:52.223Z,18.44
2018-09-18T08:19:56.840Z,19.01
2018-09-18T08:23:01.389Z,19.01
2018-09-18T08:26:05.887Z,19.46
2018-09-18T08:29:10.493Z,19.52
2018-09-18T08:32:15.948Z,19.88
2018-09-18T08:35:20.400Z,19.71
2018-09-18T08:38:25.054Z,19.56
2018-09-18T08:41:29.547Z,19.94
2018-09-18T08:44:34.048Z,20.17
2018-09-18T08:47:38.589Z,20.13
2018-09-18T08:50:43.145Z,20.33
2018-09-18T08:53:47.639Z,20.45
2018-09-18T08:56:52.195Z,20.55
2018-09-18T08:59:56.690Z,20.74
2018-09-18T09:03:01.261Z,21.38
2018-09-18T09:06:05.884Z,21.40
2018-09-18T09:09:14.275Z,21.15
2018-09-18T09:12:18.675Z,21.72
2018-09-18T09:15:23.317Z,21.80
2018-09-18T09:18:27.937Z,22.39
2018-09-18T09:21:33.116Z,22.59
2018-09-18T09:24:39.160Z,22.35
2018-09-18T09:27:44.384Z,22.74
2018-09-18T09:30:48.952Z,23.38
2018-09-18T09:33:53.459Z,23.42
2018-09-18T09:37:00.777Z,23.21
2018-09-18T09:40:06.310Z,22.99
2018-09-18T09:43:11.487Z,23.83
2018-09-18T09:46:15.990Z,23.82
2018-09-18T09:49:25.615Z,23.74
2018-09-18T09:52:31.765Z,24.00
2018-09-18T09:59:17.893Z,24.23
2018-09-18T10:02:27.618Z,24.55
2018-09-18T10:05:32.402Z,24.76
2018-09-18T10:08:37.584Z,24.87
2018-09-18T10:11:42.351Z,25.31
2018-09-18T10:14:47.071Z,25.61
2018-09-18T10:22:01.617Z,25.50
2018-09-18T10:25:06.618Z,25.33
2018-09-18T10:28:11.179Z,25.71
2018-09-18T10:31:15.833Z,26.11
2018-09-18T10:34:20.463Z,26.52
2018-09-18T10:37:25.067Z,26.61
2018-09-18T10:40:29.689Z,26.62
2018-09-18T10:43:34.578Z,26.92
2018-09-18T10:46:39.348Z,26.79
2018-09-18T10:49:43.924Z,26.99
2018-09-18T10:53:34.264Z,27.34
2018-09-18T10:56:39.567Z,27.50
2018-09-18T10:59:44.377Z,27.59
2018-09-18T11:02:49.161Z,27.60
2018-09-18T11:05:53.865Z,27.85
2018-09-18T11:08:58.525Z,28.23
2018-09-18T11:12:03.529Z,28.18
2018-09-18T11:15:08.248Z,27.90
2018-09-18T11:18:12.907Z,28.34
2018-09-18T11:21:17.502Z,28.75
2018-09-18T11:24:22.265Z,28.96
2018-09-18T11:27:26.900Z,28.60
2018-09-18T11:30:31.553Z,28.75
2018-09-18T11:33:36.177Z,28.79
2018-09-18T11:36:40.753Z,28.69
2018-09-18T11:39:45.417Z,28.65
2018-09-18T11:42:49.924Z,28.67
2018-09-18T11:45:54.822Z,29.02
2018-09-18T11:48:59.530Z,29.09
2018-09-18T11:52:04.608Z,29.22
2018-09-18T11:55:09.155Z,29.32
2018-09-18T11:58:14.217Z,29.02
2018-09-18T12:01:19.089Z,29.20
2018-09-18T12:04:46.317Z,29.53
2018-09-18T12:08:23.038Z,29.59
2018-09-18T12:15:54.226Z,30.42
2018-09-18T12:23:00.243Z,30.63
2018-09-18T12:26:05.746Z,31.13
2018-09-18T12:29:10.357Z,30.76
2018-09-18T12:32:14.920Z,30.35
2018-09-18T12:35:19.610Z,30.73
2018-09-18T12:38:24.770Z,30.77
2018-09-18T12:41:29.361Z,30.91
2018-09-18T12:44:34.254Z,30.85
2018-09-18T12:47:38.802Z,31.12
2018-09-18T12:50:43.525Z,31.11
2018-09-18T12:53:48.543Z,31.04
2018-09-18T12:56:53.245Z,30.83
2018-09-18T12:59:57.861Z,30.84
2018-09-18T13:03:02.365Z,30.90
2018-09-18T13:06:07.380Z,31.27
2018-09-18T13:09:13.349Z,31.11
2018-09-18T13:12:17.953Z,30.81
2018-09-18T13:15:23.421Z,31.04
2018-09-18T13:18:28.100Z,31.12
2018-09-18T13:22:11.288Z,31.15
2018-09-18T13:25:15.970Z,31.17
2018-09-18T13:28:20.527Z,31.22
2018-09-18T13:31:25.417Z,31.56
2018-09-18T13:34:30.073Z,31.41
2018-09-18T13:37:34.698Z,31.40
2018-09-18T13:40:39.351Z,31.13
2018-09-18T13:43:44.017Z,31.14
2018-09-18T13:46:48.665Z,31.12
2018-09-18T13:49:53.310Z,31.04
2018-09-18T13:52:58.054Z,31.15
2018-09-18T13:56:02.781Z,31.30
2018-09-18T13:59:07.419Z,31.37
2018-09-18T14:02:12.250Z,31.35
2018-09-18T14:05:16.924Z,31.39
2018-09-18T14:08:21.563Z,31.14
2018-09-18T14:11:26.191Z,31.40
2018-09-18T14:15:01.712Z,31.22
2018-09-18T14:18:06.410Z,31.01
2018-09-18T14:21:11.141Z,31.34
2018-09-18T14:24:15.781Z,31.58
2018-09-18T14:27:20.528Z,31.22
2018-09-18T14:34:30.313Z,31.01
2018-09-18T14:37:34.937Z,30.88
2018-09-18T14:41:14.391Z,30.77
2018-09-18T14:48:12.884Z,30.83
2018-09-18T14:51:17.565Z,30.71
2018-09-18T14:54:22.531Z,30.89
2018-09-18T14:57:36.107Z,30.74
2018-09-18T15:00:40.704Z,30.66
2018-09-18T15:03:45.405Z,30.90
2018-09-18T15:06:50.768Z,30.63
2018-09-18T15:09:55.345Z,30.65
2018-09-18T15:16:53.684Z,30.36
2018-09-18T15:19:58.371Z,30.29
2018-09-18T15:23:03.268Z,30.26
2018-09-18T15:26:12.381Z,30.15
2018-09-18T15:29:17.095Z,30.15
2018-09-18T15:32:21.951Z,30.17
2018-09-18T15:35:26.719Z,30.30
2018-09-18T15:38:48.855Z,30.11
2018-09-18T15:41:53.512Z,30.36
2018-09-18T15:45:28.170Z,30.07
2018-09-18T15:48:32.698Z,29.91
2018-09-18T15:51:37.369Z,29.73
2018-09-18T15:54:42.190Z,29.69
2018-09-18T15:57:46.833Z,29.60
2018-09-18T16:00:51.376Z,29.31
2018-09-18T16:03:56.317Z,29.37
2018-09-18T16:07:00.951Z,29.07
2018-09-18T16:10:05.957Z,28.97
2018-09-18T16:13:10.780Z,28.75
2018-09-18T16:16:15.422Z,28.54
2018-09-18T16:19:21.038Z,28.55
2018-09-18T16:22:25.701Z,28.23
2018-09-18T16:25:30.369Z,27.94
2018-09-18T16:28:35.051Z,27.61
2018-09-18T16:31:39.823Z,27.28
2018-09-18T16:34:44.544Z,27.18
2018-09-18T16:37:49.339Z,27.06
2018-09-18T16:40:54.037Z,26.94
2018-09-18T16:43:58.969Z,26.67
2018-09-18T16:47:03.616Z,26.60
2018-09-18T16:50:08.335Z,26.55
2018-09-18T16:53:12.983Z,26.53
2018-09-18T16:56:17.983Z,26.51
2018-09-18T16:59:22.564Z,26.34
2018-09-18T17:02:27.357Z,26.24
2018-09-18T17:05:32.022Z,26.04
2018-09-18T17:08:36.776Z,26.01
2018-09-18T17:11:41.444Z,25.72
2018-09-18T17:14:46.204Z,25.38
2018-09-18T17:17:50.828Z,25.14
2018-09-18T17:21:18.664Z,25.02
2018-09-18T17:24:23.407Z,24.68
2018-09-18T17:27:28.127Z,24.43
2018-09-18T17:30:32.859Z,24.24
2018-09-18T17:33:37.730Z,24.04
2018-09-18T17:36:42.494Z,23.83
2018-09-18T17:39:47.510Z,23.67
2018-09-18T17:42:52.117Z,23.63
2018-09-18T17:45:56.805Z,23.41
2018-09-18T17:49:01.497Z,23.40
2018-09-18T17:52:06.200Z,23.22
2018-09-18T17:55:10.934Z,23.11
2018-09-18T17:58:15.673Z,22.93
2018-09-18T18:01:20.455Z,22.80
2018-09-18T18:04:25.028Z,22.65
2018-09-18T18:07:29.620Z,22.48
2018-09-18T18:10:34.274Z,22.35
2018-09-18T18:13:39.045Z,22.29
2018-09-18T18:16:43.754Z,22.12
2018-09-18T18:19:48.397Z,22.01
2018-09-18T18:22:52.967Z,21.92
2018-09-18T18:25:57.677Z,21.84
2018-09-18T18:29:02.341Z,21.67
2018-09-18T18:32:07.710Z,21.57
2018-09-18T18:35:12.325Z,21.46
2018-09-18T18:38:17.201Z,21.33
2018-09-18T18:41:21.848Z,21.25
2018-09-18T18:44:26.585Z,21.29
2018-09-18T18:47:31.359Z,21.11
2018-09-18T18:50:35.981Z,21.09
2018-09-18T18:53:40.634Z,20.95
2018-09-18T18:56:45.296Z,20.82
2018-09-18T18:59:50.211Z,20.73
2018-09-18T19:02:55.003Z,20.70
2018-09-18T19:05:59.883Z,20.61
2018-09-18T19:09:06.325Z,20.51
2018-09-18T19:12:11.136Z,20.50
2018-09-18T19:15:15.935Z,20.40
2018-09-18T19:18:20.776Z,20.33
2018-09-18T19:21:25.691Z,20.27
2018-09-18T19:24:30.490Z,20.18
2018-09-18T19:27:35.198Z,20.00
2018-09-18T19:30:40.084Z,19.93
2018-09-18T19:33:44.850Z,19.91
2018-09-18T19:36:49.829Z,19.88
2018-09-18T19:39:54.726Z,19.91
2018-09-18T19:43:00.341Z,19.82
2018-09-18T19:46:05.160Z,19.71
2018-09-18T19:49:09.987Z,19.59
2018-09-18T19:52:14.714Z,19.47
2018-09-18T19:55:19.359Z,19.39
2018-09-18T19:58:24.151Z,19.26
2018-09-18T20:01:28.793Z,19.23
2018-09-18T20:04:33.564Z,19.18
2018-09-18T20:07:38.267Z,19.12
2018-09-18T20:10:42.965Z,19.11
2018-09-18T20:13:47.822Z,19.15
2018-09-18T20:16:52.594Z,19.16
2018-09-18T20:19:57.478Z,19.11
2018-09-18T20:23:02.300Z,19.07
2018-09-18T20:26:07.262Z,19.14
2018-09-18T20:29:11.865Z,19.05
2018-09-18T20:32:16.726Z,18.91
2018-09-18T20:35:21.398Z,18.83
2018-09-18T20:38:26.487Z,18.70
2018-09-18T20:41:31.280Z,18.59
2018-09-18T20:44:35.948Z,18.49
2018-09-18T20:47:40.541Z,18.40
2018-09-18T20:50:45.524Z,18.34
2018-09-18T20:53:50.257Z,18.34
2018-09-18T20:56:54.942Z,18.40
2018-09-18T20:59:59.765Z,18.34
2018-09-18T21:03:04.652Z,18.27
2018-09-18T21:06:09.771Z,18.16
2018-09-18T21:09:14.455Z,18.11
2018-09-18T21:12:19.776Z,18.02
2018-09-18T21:15:24.743Z,17.97
2018-09-18T21:18:29.670Z,17.90
2018-09-18T21:21:34.440Z,17.85
2018-09-18T21:24:39.443Z,17.89
2018-09-18T21:27:45.674Z,17.99
2018-09-18T21:30:50.763Z,17.92
2018-09-18T21:33:55.489Z,17.82
2018-09-18T21:37:00.244Z,17.82
2018-09-18T21:40:05.246Z,17.80
2018-09-18T21:43:15.121Z,17.75
2018-09-18T21:46:19.826Z,17.74
2018-09-18T21:49:24.690Z,17.74
2018-09-18T21:52:29.312Z,17.70
2018-09-18T21:55:34.250Z,17.62
2018-09-18T21:58:38.871Z,17.55
2018-09-18T22:01:43.987Z,17.57
2018-09-18T22:04:48.685Z,17.51
2018-09-18T22:07:53.491Z,17.44
2018-09-18T22:10:58.362Z,17.33
2018-09-18T22:14:03.384Z,17.30
2018-09-18T22:17:08.001Z,17.19
2018-09-18T22:20:12.905Z,17.18
2018-09-18T22:23:17.517Z,17.09
2018-09-18T22:26:22.667Z,17.06
2018-09-18T22:29:28.187Z,17.01
2018-09-18T22:32:33.204Z,16.92
2018-09-18T22:35:37.873Z,16.88
2018-09-18T22:38:42.501Z,16.79
2018-09-18T22:41:47.257Z,16.83
2018-09-18T22:44:52.937Z,16.73
2018-09-18T22:47:58.327Z,16.73
2018-09-18T22:51:03.120Z,16.73
2018-09-18T22:54:07.853Z,16.74
2018-09-18T22:57:12.680Z,16.68
2018-09-18T23:00:17.262Z,16.59
2018-09-18T23:03:22.498Z,16.63
2018-09-18T23:06:27.198Z,16.61
2018-09-18T23:09:32.118Z,16.51
2018-09-18T23:12:36.709Z,16.52
2018-09-18T23:15:41.329Z,16.51
2018-09-18T23:18:46.080Z,16.44
2018-09-18T23:21:50.715Z,16.47
2018-09-18T23:24:55.315Z,16.39
2018-09-18T23:28:00.169Z,16.36
2018-09-18T23:31:05.299Z,16.34
2018-09-18T23:34:10.185Z,16.23
2018-09-18T23:37:14.747Z,16.12
2018-09-18T23:40:19.401Z,16.10
2018-09-18T23:43:23.998Z,16.11
2018-09-18T23:46:28.732Z,16.03
2018-09-18T23:49:33.484Z,16.04
2018-09-18T23:52:38.151Z,15.94
2018-09-18T23:55:42.979Z,15.93
2018-09-18T23:58:47.945Z,15.94
